Time;durP1;ratioP1;P1;durP2;ratioP2;P2;SDS_P1;SDS_P2;PMS_P1;PMS_P2;Temp;Humidity;BMP_temperature;BMP_pressure;BME280_temperature;BME280_humidity;BME280_pressure;Samples;Min_cycle;Max_cycle;Signal;HPM_P1;HPM_P2
2022/07/31 00:00:51;;;;;;;6.53;2.67;;;17.60;73.40;;;;;;5040328;28;20079;-66
2022/07/31 00:03:17;;;;;;;8.00;2.73;;;17.50;73.40;;;;;;5011123;28;20393;-66
2022/07/31 00:05:42;;;;;;;3.13;2.30;;;17.60;73.50;;;;;;5043546;28;20124;-66
2022/07/31 00:08:08;;;;;;;5.07;2.63;;;17.60;73.50;;;;;;5044381;28;20033;-66
2022/07/31 00:10:35;;;;;;;4.10;2.60;;;17.60;73.40;;;;;;5025262;28;20068;-67
2022/07/31 00:13:00;;;;;;;3.83;2.67;;;17.60;73.50;;;;;;5043030;28;20041;-67
2022/07/31 00:15:26;;;;;;;4.37;2.60;;;17.60;73.40;;;;;;5043540;28;20303;-66
2022/07/31 00:17:52;;;;;;;5.27;2.20;;;17.70;73.60;;;;;;5039996;28;20250;-66
2022/07/31 00:20:18;;;;;;;3.80;2.47;;;17.70;73.60;;;;;;5042746;28;20451;-67
2022/07/31 00:22:45;;;;;;;3.00;2.63;;;17.70;73.60;;;;;;5020252;28;20033;-67
2022/07/31 00:25:12;;;;;;;4.27;3.10;;;17.70;74.00;;;;;;5022243;28;20068;-67
2022/07/31 00:27:39;;;;;;;5.37;2.60;;;17.70;73.70;;;;;;5023787;28;20327;-67
2022/07/31 00:30:05;;;;;;;3.40;2.43;;;17.80;73.60;;;;;;5037999;28;20311;-67
2022/07/31 00:32:31;;;;;;;5.03;3.27;;;17.80;73.80;;;;;;5024180;28;20291;-67
2022/07/31 00:34:56;;;;;;;3.73;3.20;;;17.80;73.60;;;;;;5023262;28;20291;-67
2022/07/31 00:37:22;;;;;;;3.60;2.93;;;17.80;73.50;;;;;;5032528;28;20469;-67
2022/07/31 00:39:48;;;;;;;5.43;3.37;;;17.80;73.40;;;;;;5024866;28;20071;-67
2022/07/31 00:42:17;;;;;;;5.17;3.30;;;17.80;73.20;;;;;;5031717;28;20079;-67
2022/07/31 00:44:44;;;;;;;3.80;3.10;;;17.80;73.00;;;;;;5024542;28;20102;-67
2022/07/31 00:47:10;;;;;;;4.77;3.20;;;17.90;72.80;;;;;;5045661;28;20785;-67
2022/07/31 00:49:35;;;;;;;6.23;3.53;;;17.90;72.70;;;;;;5029220;28;20310;-67
2022/07/31 00:52:01;;;;;;;4.77;3.63;;;17.90;72.80;;;;;;5033652;28;20045;-67
2022/07/31 00:54:27;;;;;;;4.63;3.23;;;17.90;72.70;;;;;;5046164;28;20049;-67
2022/07/31 00:56:52;;;;;;;7.60;3.37;;;17.90;72.70;;;;;;5047020;28;20045;-67
2022/07/31 00:59:18;;;;;;;7.90;3.77;;;17.90;72.70;;;;;;5046784;28;20409;-67
2022/07/31 01:01:44;;;;;;;4.53;2.90;;;17.90;72.70;;;;;;5046741;28;20053;-67
2022/07/31 01:04:11;;;;;;;5.83;4.00;;;17.90;72.80;;;;;;5040025;28;20056;-67
2022/07/31 01:06:37;;;;;;;4.30;3.53;;;17.90;72.80;;;;;;5029797;28;20037;-67
2022/07/31 01:09:03;;;;;;;4.87;3.47;;;17.90;72.80;;;;;;5020446;28;20287;-67
2022/07/31 01:11:47;;;;;;;5.47;3.50;;;17.80;72.80;;;;;;5046243;28;20036;-67
2022/07/31 01:14:13;;;;;;;4.77;3.30;;;17.90;72.80;;;;;;5046125;28;20118;-67
2022/07/31 01:16:43;;;;;;;6.37;3.87;;;17.80;72.70;;;;;;5045557;28;20276;-67
2022/07/31 01:19:27;;;;;;;5.90;4.00;;;17.80;72.70;;;;;;5033171;28;20280;-67
2022/07/31 01:22:27;;;;;;;8.20;3.80;;;17.80;72.60;;;;;;5040291;28;20298;-67
2022/07/31 01:25:21;;;;;;;5.30;3.63;;;17.80;72.50;;;;;;5044358;28;20276;-67
2022/07/31 01:28:06;;;;;;;5.47;3.83;;;17.70;72.50;;;;;;5030072;28;20282;-67
2022/07/31 01:30:42;;;;;;;5.95;3.97;;;17.70;72.80;;;;;;5042191;28;20306;-67
2022/07/31 01:33:13;;;;;;;5.97;4.20;;;17.70;72.70;;;;;;5045873;28;20102;-67
2022/07/31 01:35:44;;;;;;;6.13;3.70;;;17.70;72.70;;;;;;5040517;28;20287;-67
2022/07/31 01:38:19;;;;;;;6.47;4.50;;;17.70;72.90;;;;;;5046921;28;20634;-67
2022/07/31 01:40:49;;;;;;;6.95;4.28;;;17.70;72.70;;;;;;5045428;28;20890;-67
2022/07/31 01:43:21;;;;;;;5.17;4.03;;;17.70;72.40;;;;;;5029547;28;20047;-67
2022/07/31 01:45:50;;;;;;;6.07;4.10;;;17.70;72.30;;;;;;5045991;28;20292;-67
2022/07/31 01:48:17;;;;;;;5.57;3.87;;;17.70;72.00;;;;;;5023032;28;20283;-67
2022/07/31 01:50:45;;;;;;;5.20;3.90;;;17.70;71.90;;;;;;5041590;28;20291;-67
2022/07/31 01:53:15;;;;;;;7.50;4.17;;;17.70;71.70;;;;;;5044336;28;20287;-67
2022/07/31 01:55:42;;;;;;;7.10;4.37;;;17.80;71.60;;;;;;5029473;28;20314;-67
2022/07/31 01:58:10;;;;;;;5.07;3.73;;;17.80;71.60;;;;;;5022522;28;20809;-67
2022/07/31 02:00:37;;;;;;;5.93;3.80;;;17.80;71.60;;;;;;5045131;28;20299;-67
2022/07/31 02:03:05;;;;;;;6.03;4.17;;;17.80;71.70;;;;;;5044654;28;20394;-67
2022/07/31 02:05:33;;;;;;;5.73;3.27;;;17.80;71.70;;;;;;5045754;28;20408;-67
2022/07/31 02:07:59;;;;;;;6.60;4.03;;;17.80;71.80;;;;;;5043621;28;20374;-67
2022/07/31 02:10:26;;;;;;;6.13;3.70;;;17.80;71.90;;;;;;5045574;28;20302;-67
2022/07/31 02:12:53;;;;;;;4.97;4.47;;;17.80;72.10;;;;;;5045026;28;20319;-67
2022/07/31 02:15:20;;;;;;;6.30;4.07;;;17.80;72.10;;;;;;5045717;28;20291;-67
2022/07/31 02:17:47;;;;;;;5.23;3.70;;;17.80;72.30;;;;;;5028823;28;20287;-67
2022/07/31 02:20:14;;;;;;;8.10;4.10;;;17.70;72.40;;;;;;5016855;28;20307;-67
2022/07/31 02:22:40;;;;;;;5.40;3.73;;;17.70;72.50;;;;;;5038289;28;20775;-67
2022/07/31 02:25:07;;;;;;;4.53;3.90;;;17.70;72.90;;;;;;5040662;28;20278;-67
2022/07/31 02:27:34;;;;;;;7.17;4.23;;;17.60;73.00;;;;;;5045382;28;20710;-67
2022/07/31 02:30:02;;;;;;;4.23;3.73;;;17.60;73.00;;;;;;5027579;28;20361;-67
2022/07/31 02:32:31;;;;;;;4.93;3.60;;;17.60;73.20;;;;;;5042462;28;20317;-67
2022/07/31 02:34:59;;;;;;;5.37;3.90;;;17.60;73.20;;;;;;5038994;28;20635;-67
2022/07/31 02:37:26;;;;;;;5.60;4.00;;;17.60;73.10;;;;;;5038579;28;20292;-67
2022/07/31 02:39:54;;;;;;;6.20;4.03;;;17.60;73.30;;;;;;5012373;28;20336;-67
2022/07/31 02:42:21;;;;;;;5.57;4.00;;;17.60;73.20;;;;;;5031075;28;20310;-67
2022/07/31 02:44:47;;;;;;;4.13;3.60;;;17.50;73.50;;;;;;5024262;28;20287;-67
2022/07/31 02:47:14;;;;;;;5.97;4.13;;;17.50;73.30;;;;;;5015722;28;20934;-67
2022/07/31 02:49:40;;;;;;;7.93;4.27;;;17.50;73.40;;;;;;5038948;28;20625;-67
2022/07/31 02:52:08;;;;;;;5.73;3.90;;;17.40;73.50;;;;;;5006262;28;20300;-67
2022/07/31 02:54:38;;;;;;;7.23;4.43;;;17.40;73.50;;;;;;5041069;28;20296;-67
2022/07/31 02:57:04;;;;;;;5.27;4.03;;;17.40;73.60;;;;;;5029602;28;20298;-67
2022/07/31 02:59:30;;;;;;;6.90;4.53;;;17.40;73.90;;;;;;5033605;28;20757;-67
2022/07/31 03:01:57;;;;;;;5.37;4.10;;;17.30;74.10;;;;;;5044575;28;20801;-67
2022/07/31 03:04:23;;;;;;;5.30;4.37;;;17.30;74.30;;;;;;5011462;28;20422;-67
2022/07/31 03:06:49;;;;;;;5.10;4.60;;;17.30;74.00;;;;;;5051186;28;20291;-67
2022/07/31 03:09:15;;;;;;;7.37;4.73;;;17.30;74.20;;;;;;5027405;28;20374;-67
2022/07/31 03:11:41;;;;;;;8.97;5.23;;;17.30;74.50;;;;;;5026636;28;20719;-67
2022/07/31 03:14:09;;;;;;;6.17;4.63;;;17.30;74.70;;;;;;5040847;28;20046;-67
2022/07/31 03:16:35;;;;;;;6.93;5.13;;;17.30;75.10;;;;;;5043781;28;20348;-67
2022/07/31 03:19:03;;;;;;;7.30;5.07;;;17.30;75.10;;;;;;5037458;28;20283;-67
2022/07/31 03:21:30;;;;;;;5.10;4.17;;;17.30;74.90;;;;;;5041685;28;20283;-67
2022/07/31 03:23:57;;;;;;;6.77;4.90;;;17.30;75.10;;;;;;5044656;28;20354;-67
2022/07/31 03:26:23;;;;;;;6.27;4.30;;;17.30;75.20;;;;;;5045020;28;21006;-67
2022/07/31 03:28:48;;;;;;;5.80;4.50;;;17.30;75.00;;;;;;5043564;28;20319;-67
2022/07/31 03:31:14;;;;;;;6.30;5.10;;;17.30;75.10;;;;;;5040320;28;20049;-67
2022/07/31 03:33:41;;;;;;;4.97;4.10;;;17.30;75.00;;;;;;5026036;28;20141;-67
2022/07/31 03:36:08;;;;;;;7.73;4.60;;;17.30;75.10;;;;;;5042180;28;20049;-67
2022/07/31 03:38:34;;;;;;;7.43;4.20;;;17.30;75.20;;;;;;5043532;28;20302;-67
2022/07/31 03:41:00;;;;;;;4.97;4.33;;;17.40;75.00;;;;;;5043621;28;20295;-67
2022/07/31 03:43:29;;;;;;;5.77;4.40;;;17.40;75.00;;;;;;4994687;28;20283;-67
2022/07/31 03:45:57;;;;;;;6.00;4.43;;;17.40;75.00;;;;;;5044161;28;20121;-67
2022/07/31 03:48:23;;;;;;;6.43;4.33;;;17.40;75.00;;;;;;5034774;28;20275;-67
2022/07/31 03:50:49;;;;;;;7.83;4.80;;;17.40;75.00;;;;;;5009885;28;20290;-67
2022/07/31 03:53:16;;;;;;;7.17;4.97;;;17.50;74.90;;;;;;5027314;28;20310;-67
2022/07/31 03:55:44;;;;;;;6.30;4.37;;;17.40;75.00;;;;;;5022242;28;20288;-67
2022/07/31 03:58:11;;;;;;;7.57;4.57;;;17.50;74.90;;;;;;5040271;28;20295;-67
2022/07/31 04:00:37;;;;;;;7.40;4.30;;;17.50;75.00;;;;;;5043789;28;20387;-67
2022/07/31 04:03:08;;;;;;;5.20;4.37;;;17.50;74.90;;;;;;5040848;28;20472;-67
2022/07/31 04:05:34;;;;;;;7.03;4.67;;;17.50;74.90;;;;;;5044750;28;20578;-67
2022/07/31 04:08:00;;;;;;;6.27;4.80;;;17.60;75.10;;;;;;5009080;28;20310;-67
2022/07/31 04:10:26;;;;;;;8.27;4.47;;;17.60;74.90;;;;;;5043757;28;20295;-68
2022/07/31 04:12:52;;;;;;;5.00;4.27;;;17.60;74.90;;;;;;5044202;28;20276;-67
2022/07/31 04:15:18;;;;;;;6.40;4.50;;;17.60;74.90;;;;;;5028458;28;20151;-67
2022/07/31 04:17:43;;;;;;;6.03;4.10;;;17.60;75.00;;;;;;5044654;28;20041;-67
2022/07/31 04:20:10;;;;;;;6.53;4.30;;;17.60;74.90;;;;;;5010889;28;20038;-67
2022/07/31 04:22:36;;;;;;;7.57;4.70;;;17.70;75.20;;;;;;5031104;28;20037;-67
2022/07/31 04:25:03;;;;;;;6.63;5.00;;;17.70;75.10;;;;;;5037971;28;20389;-67
2022/07/31 04:27:29;;;;;;;6.20;4.60;;;17.70;75.20;;;;;;5046004;28;20322;-67
2022/07/31 04:29:56;;;;;;;5.70;5.10;;;17.70;75.00;;;;;;5030476;28;20809;-67
2022/07/31 04:32:22;;;;;;;5.60;4.43;;;17.70;75.00;;;;;;5047968;28;20110;-67
2022/07/31 04:34:49;;;;;;;7.03;4.53;;;17.80;75.20;;;;;;5040163;28;20298;-67
2022/07/31 04:37:15;;;;;;;8.43;5.20;;;17.80;75.30;;;;;;5001529;28;20295;-67
2022/07/31 04:39:42;;;;;;;7.03;4.87;;;17.80;75.10;;;;;;5041828;28;21135;-67
2022/07/31 04:42:08;;;;;;;5.47;4.70;;;17.80;75.20;;;;;;5039535;28;20284;-67
2022/07/31 04:44:33;;;;;;;5.80;4.43;;;17.90;75.20;;;;;;5026642;28;20866;-67
2022/07/31 04:47:04;;;;;;;6.47;4.80;;;17.90;75.20;;;;;;5037812;28;20275;-67
2022/07/31 04:49:31;;;;;;;6.20;4.73;;;17.90;75.10;;;;;;5022038;28;20037;-67
2022/07/31 04:51:58;;;;;;;7.67;4.73;;;18.00;75.00;;;;;;5048141;28;20609;-67
2022/07/31 04:54:24;;;;;;;4.93;4.07;;;18.10;75.00;;;;;;5046747;28;20287;-67
2022/07/31 04:56:49;;;;;;;6.10;4.80;;;18.10;74.90;;;;;;5045584;28;20671;-67
2022/07/31 04:59:19;;;;;;;6.63;4.70;;;18.20;75.00;;;;;;5026875;28;20409;-67
2022/07/31 05:01:45;;;;;;;6.00;4.70;;;18.20;74.70;;;;;;5041406;28;20531;-67
2022/07/31 05:04:11;;;;;;;6.30;4.77;;;18.30;74.60;;;;;;5063411;28;20381;-67
2022/07/31 05:06:38;;;;;;;7.17;5.10;;;18.30;74.50;;;;;;5029999;28;20830;-67
2022/07/31 05:09:18;;;;;;;6.30;4.23;;;18.40;74.50;;;;;;5046583;28;20041;-67
2022/07/31 05:11:45;;;;;;;6.80;5.13;;;18.50;74.60;;;;;;5037416;28;20279;-67
2022/07/31 05:14:13;;;;;;;7.47;4.37;;;18.60;74.30;;;;;;5027879;28;20279;-67
2022/07/31 05:16:38;;;;;;;6.60;4.47;;;18.60;74.40;;;;;;5021057;28;20283;-67
2022/07/31 05:19:06;;;;;;;6.97;4.87;;;18.60;74.20;;;;;;5046136;28;20278;-67
2022/07/31 05:21:31;;;;;;;6.53;5.00;;;18.60;74.30;;;;;;5030322;28;20048;-67
2022/07/31 05:23:58;;;;;;;8.20;5.20;;;18.60;74.10;;;;;;5026407;28;20280;-67
2022/07/31 05:26:25;;;;;;;6.60;5.27;;;18.60;74.00;;;;;;5045796;28;20126;-67
2022/07/31 05:28:54;;;;;;;5.93;4.80;;;18.60;74.00;;;;;;5010507;28;20433;-67
2022/07/31 05:31:20;;;;;;;6.70;4.90;;;18.70;73.90;;;;;;5045711;28;20307;-67
2022/07/31 05:33:47;;;;;;;8.97;5.13;;;18.70;73.80;;;;;;5046284;28;20647;-67
2022/07/31 05:36:14;;;;;;;8.93;5.63;;;18.70;73.90;;;;;;5046476;28;20318;-67
2022/07/31 05:38:39;;;;;;;6.63;4.50;;;18.70;74.00;;;;;;5057260;28;20406;-67
2022/07/31 05:41:05;;;;;;;6.87;5.40;;;18.70;74.10;;;;;;5061638;28;20382;-67
2022/07/31 05:43:31;;;;;;;5.90;5.30;;;18.70;74.20;;;;;;5046527;28;20390;-67
2022/07/31 05:45:56;;;;;;;6.00;5.13;;;18.80;74.10;;;;;;5038166;28;20037;-67
2022/07/31 05:48:22;;;;;;;7.23;5.17;;;18.80;74.10;;;;;;5043169;28;20094;-67
2022/07/31 05:50:49;;;;;;;7.90;5.23;;;18.80;73.90;;;;;;5046640;28;20045;-67
2022/07/31 05:53:15;;;;;;;6.33;5.10;;;18.80;73.90;;;;;;5037444;28;20099;-67
2022/07/31 05:55:43;;;;;;;6.60;4.90;;;18.90;74.00;;;;;;5046187;28;20416;-67
2022/07/31 05:58:09;;;;;;;7.60;4.90;;;18.90;73.90;;;;;;5044450;28;20288;-67
2022/07/31 06:00:36;;;;;;;7.40;5.57;;;19.00;73.90;;;;;;5042037;28;20300;-67
2022/07/31 06:03:02;;;;;;;6.40;5.07;;;19.00;73.90;;;;;;5022541;28;20291;-67
2022/07/31 06:05:28;;;;;;;6.47;5.17;;;19.10;73.70;;;;;;5029861;28;20856;-67
2022/07/31 06:07:55;;;;;;;7.13;5.60;;;19.20;73.50;;;;;;5045429;28;20033;-67
2022/07/31 06:10:21;;;;;;;6.60;5.23;;;19.20;73.30;;;;;;5028933;28;20311;-67
2022/07/31 06:12:47;;;;;;;7.57;5.50;;;19.20;73.40;;;;;;5028279;28;20068;-67
2022/07/31 06:15:13;;;;;;;8.57;6.00;;;19.30;73.50;;;;;;5029723;28;20048;-67
2022/07/31 06:17:40;;;;;;;6.50;5.63;;;19.40;73.60;;;;;;5027345;28;20056;-67
2022/07/31 06:20:07;;;;;;;7.13;5.70;;;19.50;73.40;;;;;;5042279;28;20306;-67
2022/07/31 06:22:32;;;;;;;8.10;5.87;;;19.70;73.20;;;;;;5045168;28;20158;-67
2022/07/31 06:24:58;;;;;;;6.53;5.27;;;19.80;73.00;;;;;;5045381;28;20549;-67
2022/07/31 06:27:24;;;;;;;11.13;5.83;;;19.90;72.80;;;;;;5041421;28;20038;-67
2022/07/31 06:29:50;;;;;;;7.00;6.00;;;19.90;72.70;;;;;;5025652;28;20646;-67
2022/07/31 06:32:15;;;;;;;9.47;6.00;;;20.00;72.60;;;;;;5040230;28;20152;-67
2022/07/31 06:34:41;;;;;;;8.30;5.80;;;20.10;72.20;;;;;;5037592;28;20109;-67
2022/07/31 06:37:07;;;;;;;7.37;6.63;;;20.10;72.50;;;;;;5024434;28;20049;-67
2022/07/31 06:39:33;;;;;;;8.60;6.40;;;20.20;72.60;;;;;;5028062;28;20048;-67
2022/07/31 06:41:59;;;;;;;8.40;6.53;;;20.30;72.60;;;;;;5027347;28;20044;-67
2022/07/31 06:44:25;;;;;;;9.03;6.23;;;20.40;72.40;;;;;;5045179;28;20036;-67
2022/07/31 06:46:50;;;;;;;9.23;7.57;;;20.40;72.30;;;;;;5010662;28;20040;-68
2022/07/31 06:49:17;;;;;;;11.00;7.60;;;20.50;72.20;;;;;;5024279;28;20045;-67
2022/07/31 06:51:43;;;;;;;11.83;7.10;;;20.50;72.30;;;;;;5043722;28;20051;-67
2022/07/31 06:54:10;;;;;;;10.13;7.73;;;20.60;72.60;;;;;;5044805;28;20044;-67
2022/07/31 06:56:37;;;;;;;10.20;7.63;;;20.60;72.70;;;;;;5027944;28;20041;-67
2022/07/31 06:59:05;;;;;;;9.77;7.53;;;20.60;72.80;;;;;;5040126;28;20100;-67
2022/07/31 07:01:30;;;;;;;10.13;7.67;;;20.70;72.70;;;;;;5011000;28;20076;-67
2022/07/31 07:03:57;;;;;;;12.27;8.43;;;20.80;72.70;;;;;;5043022;28;20528;-67
2022/07/31 07:06:22;;;;;;;11.13;8.60;;;20.90;72.60;;;;;;5035646;28;20032;-67
2022/07/31 07:08:48;;;;;;;8.53;7.10;;;20.90;72.50;;;;;;5044292;28;20170;-67
2022/07/31 07:11:14;;;;;;;10.13;8.33;;;20.90;72.60;;;;;;5044138;28;20045;-67
2022/07/31 07:13:40;;;;;;;9.97;7.57;;;20.90;72.80;;;;;;5020973;28;20044;-67
2022/07/31 07:16:06;;;;;;;10.37;7.53;;;20.90;72.90;;;;;;5042008;28;20045;-67
2022/07/31 07:18:32;;;;;;;10.27;7.87;;;21.00;73.00;;;;;;5039969;28;20097;-67
2022/07/31 07:20:57;;;;;;;10.97;7.50;;;21.00;73.30;;;;;;5007879;28;20053;-67
2022/07/31 07:23:23;;;;;;;10.00;7.37;;;21.10;73.30;;;;;;5027992;28;20037;-67
2022/07/31 07:25:49;;;;;;;9.07;7.13;;;21.10;73.70;;;;;;5016757;28;20051;-67
2022/07/31 07:28:16;;;;;;;13.47;7.20;;;21.20;73.80;;;;;;5037230;28;20044;-67
2022/07/31 07:30:42;;;;;;;9.60;6.40;;;21.30;73.80;;;;;;5022846;28;20513;-67
2022/07/31 07:33:08;;;;;;;11.43;6.60;;;21.40;74.00;;;;;;4998442;28;20077;-67
2022/07/31 07:35:34;;;;;;;11.83;6.83;;;21.50;74.00;;;;;;4999526;28;20128;-67
2022/07/31 07:37:59;;;;;;;7.93;6.07;;;21.50;74.50;;;;;;5017521;28;20424;-67
2022/07/31 07:40:25;;;;;;;9.57;5.77;;;21.50;75.60;;;;;;5026347;28;20037;-67
2022/07/31 07:42:52;;;;;;;11.57;6.10;;;21.50;76.00;;;;;;5028157;28;20145;-67
2022/07/31 07:45:18;;;;;;;12.90;6.53;;;21.50;76.20;;;;;;5024816;28;20037;-67
2022/07/31 07:47:44;;;;;;;11.23;6.70;;;21.40;77.10;;;;;;5020481;28;20045;-68
2022/07/31 07:50:11;;;;;;;12.67;6.30;;;21.40;77.60;;;;;;5040743;28;20052;-67
2022/07/31 07:52:37;;;;;;;11.07;6.70;;;21.30;77.90;;;;;;5037833;28;20048;-68
2022/07/31 07:55:05;;;;;;;12.37;7.27;;;21.30;78.20;;;;;;5028859;28;20049;-68
2022/07/31 07:57:31;;;;;;;13.80;7.30;;;21.20;78.80;;;;;;5014331;28;20034;-68
2022/07/31 08:00:09;;;;;;;11.73;7.20;;;21.10;79.60;;;;;;5002474;28;20083;-68
2022/07/31 08:02:35;;;;;;;10.47;7.17;;;21.00;80.20;;;;;;5037305;28;20048;-68
2022/07/31 08:05:01;;;;;;;14.13;8.13;;;20.80;80.90;;;;;;5031396;28;20044;-69
2022/07/31 08:07:28;;;;;;;12.33;6.90;;;20.70;81.30;;;;;;5047639;28;20128;-70
2022/07/31 08:09:54;;;;;;;11.47;7.00;;;20.70;81.60;;;;;;5047909;28;20528;-72
2022/07/31 08:12:20;;;;;;;13.43;7.10;;;20.70;81.40;;;;;;5031185;28;20048;-72
2022/07/31 08:14:45;;;;;;;11.73;7.27;;;20.70;81.90;;;;;;5048051;28;20394;-72
2022/07/31 08:17:11;;;;;;;11.87;7.33;;;20.60;82.10;;;;;;5046001;28;20048;-72
2022/07/31 08:19:37;;;;;;;16.13;8.50;;;20.60;82.50;;;;;;5045129;28;20048;-72
2022/07/31 08:22:03;;;;;;;13.07;7.47;;;20.50;82.70;;;;;;5047775;28;20555;-72
2022/07/31 08:24:29;;;;;;;13.60;8.63;;;20.50;83.10;;;;;;5045632;28;20033;-71
2022/07/31 08:29:38;;;;;;;14.33;8.83;;;20.40;83.20;;;;;;5043061;28;20056;-72
2022/07/31 08:32:04;;;;;;;16.37;9.67;;;20.40;83.40;;;;;;5029776;28;20443;-72
2022/07/31 08:34:31;;;;;;;13.03;9.60;;;20.40;83.80;;;;;;4998535;28;20037;-71
2022/07/31 08:36:57;;;;;;;14.57;10.47;;;20.40;83.70;;;;;;5031429;28;20045;-72
2022/07/31 08:39:22;;;;;;;12.90;9.67;;;20.50;83.70;;;;;;5028527;28;20107;-71
2022/07/31 08:41:48;;;;;;;14.40;10.47;;;20.40;84.20;;;;;;5044341;28;20532;-71
2022/07/31 08:44:14;;;;;;;15.83;9.93;;;20.40;84.20;;;;;;5028057;28;20556;-71
2022/07/31 08:46:40;;;;;;;15.43;9.50;;;20.40;84.00;;;;;;5029939;28;20071;-71
2022/07/31 08:49:08;;;;;;;14.43;9.77;;;20.40;84.30;;;;;;5045984;28;20428;-71
2022/07/31 08:51:38;;;;;;;17.57;10.23;;;20.50;84.10;;;;;;5045353;28;20405;-71
2022/07/31 08:54:09;;;;;;;14.87;10.13;;;20.50;84.30;;;;;;5047218;28;20041;-71
2022/07/31 08:56:39;;;;;;;15.27;9.97;;;20.60;84.40;;;;;;5039822;28;20386;-71
2022/07/31 08:59:06;;;;;;;14.50;9.33;;;20.60;84.50;;;;;;5028436;28;20039;-71
2022/07/31 09:01:33;;;;;;;13.23;9.93;;;20.60;84.40;;;;;;5030495;28;20041;-71
2022/07/31 09:03:59;;;;;;;13.73;10.10;;;20.60;84.60;;;;;;5044085;28;20480;-71
2022/07/31 09:06:25;;;;;;;12.97;9.73;;;20.60;84.50;;;;;;5047058;28;20044;-71
2022/07/31 09:08:51;;;;;;;16.53;9.63;;;20.50;84.30;;;;;;5044876;28;20057;-71
2022/07/31 09:11:17;;;;;;;16.57;9.93;;;20.50;84.70;;;;;;5025599;28;20039;-71
2022/07/31 09:13:53;;;;;;;12.90;9.33;;;20.40;84.70;;;;;;5039829;28;20099;-71
2022/07/31 09:16:19;;;;;;;12.90;10.27;;;20.30;84.70;;;;;;5039527;28;20052;-72
2022/07/31 09:19:03;;;;;;;15.70;10.77;;;20.30;85.00;;;;;;5034720;28;20038;-72
2022/07/31 09:21:48;;;;;;;14.57;9.80;;;20.20;85.30;;;;;;4994892;28;20068;-72
2022/07/31 09:24:26;;;;;;;13.45;10.20;;;20.10;85.60;;;;;;5038389;28;20110;-72
2022/07/31 09:27:07;;;;;;;13.70;10.23;;;20.00;86.20;;;;;;5044149;28;20037;-72
2022/07/31 09:29:41;;;;;;;13.77;10.20;;;20.00;86.20;;;;;;5040401;28;20041;-72
2022/07/31 09:32:16;;;;;;;12.70;9.20;;;20.00;86.40;;;;;;5021556;28;20064;-72
2022/07/31 09:34:43;;;;;;;15.53;10.50;;;20.10;86.80;;;;;;5024042;28;20099;-74
2022/07/31 09:37:09;;;;;;;14.60;9.10;;;20.10;86.70;;;;;;5038814;28;20040;-73
2022/07/31 09:39:36;;;;;;;11.00;8.70;;;20.20;86.90;;;;;;5025158;28;20456;-72
2022/07/31 09:42:02;;;;;;;12.07;8.73;;;20.30;86.60;;;;;;5042103;28;20064;-72
2022/07/31 09:44:39;;;;;;;14.83;9.80;;;20.30;86.60;;;;;;5041835;28;20036;-72
2022/07/31 09:47:05;;;;;;;10.30;8.00;;;20.30;86.50;;;;;;5007699;28;20064;-72
2022/07/31 09:49:34;;;;;;;9.97;7.27;;;20.30;86.80;;;;;;5037166;28;20045;-73
2022/07/31 09:52:00;;;;;;;7.67;6.40;;;20.40;86.10;;;;;;5022081;28;20175;-72
2022/07/31 09:54:28;;;;;;;9.23;6.00;;;20.30;85.80;;;;;;5022026;28;20060;-71
2022/07/31 09:56:55;;;;;;;7.93;6.20;;;20.30;85.90;;;;;;5041097;28;20087;-72
2022/07/31 09:59:21;;;;;;;8.33;6.47;;;20.30;86.10;;;;;;5041303;28;20037;-72
2022/07/31 10:01:48;;;;;;;8.53;6.87;;;20.20;86.40;;;;;;5044363;28;20037;-72
2022/07/31 10:04:17;;;;;;;11.30;8.00;;;20.30;86.40;;;;;;5038319;28;20414;-72
2022/07/31 10:06:47;;;;;;;10.63;7.97;;;20.30;86.00;;;;;;5041231;28;20445;-72
2022/07/31 10:09:14;;;;;;;10.83;7.20;;;20.30;86.30;;;;;;5037882;28;20041;-72
2022/07/31 10:11:40;;;;;;;11.53;7.93;;;20.40;86.60;;;;;;5027768;28;20037;-72
2022/07/31 10:14:12;;;;;;;10.80;8.03;;;20.40;86.30;;;;;;5022653;28;20385;-72
2022/07/31 10:16:40;;;;;;;10.83;8.00;;;20.40;86.50;;;;;;5038283;28;20713;-72
2022/07/31 10:19:10;;;;;;;12.57;8.63;;;20.40;86.40;;;;;;5040437;28;20110;-72
2022/07/31 10:21:42;;;;;;;14.00;9.00;;;20.40;86.30;;;;;;5040784;28;20037;-73
2022/07/31 10:24:11;;;;;;;13.57;9.93;;;20.40;86.00;;;;;;5039877;28;20506;-73
2022/07/31 10:26:37;;;;;;;13.90;10.57;;;20.30;86.20;;;;;;5008351;28;20048;-72
2022/07/31 10:29:03;;;;;;;13.10;10.37;;;20.30;86.40;;;;;;5037301;28;20171;-73
2022/07/31 10:31:30;;;;;;;14.60;10.00;;;20.10;86.70;;;;;;5039737;28;20065;-73
2022/07/31 10:33:57;;;;;;;15.77;11.13;;;20.10;86.40;;;;;;5038700;28;20457;-72
2022/07/31 10:36:35;;;;;;;17.03;10.87;;;20.10;86.90;;;;;;5040519;28;20087;-73
2022/07/31 10:39:23;;;;;;;13.93;10.77;;;20.10;87.10;;;;;;5038297;28;20069;-73
2022/07/31 10:41:52;;;;;;;15.63;11.03;;;20.10;87.60;;;;;;5032727;28;20453;-72
2022/07/31 10:44:30;;;;;;;16.43;11.87;;;20.10;87.40;;;;;;5038772;28;20041;-72
2022/07/31 10:46:56;;;;;;;17.27;11.83;;;20.10;87.70;;;;;;5037789;28;20041;-72
2022/07/31 10:49:43;;;;;;;15.93;11.50;;;20.00;87.70;;;;;;5022350;28;20493;-72
2022/07/31 10:52:09;;;;;;;14.93;11.30;;;20.00;87.90;;;;;;5038799;28;20048;-72
2022/07/31 10:54:42;;;;;;;16.43;12.17;;;19.90;88.30;;;;;;5018765;28;20044;-72
2022/07/31 10:57:08;;;;;;;14.23;10.67;;;19.90;88.20;;;;;;5043623;28;20059;-72
2022/07/31 10:59:34;;;;;;;15.57;11.90;;;19.80;88.30;;;;;;5025298;28;20049;-71
2022/07/31 11:02:00;;;;;;;16.67;11.47;;;19.80;88.30;;;;;;5035125;28;20056;-71
2022/07/31 11:04:29;;;;;;;17.20;11.40;;;19.80;88.70;;;;;;5040236;28;20045;-71
2022/07/31 11:06:55;;;;;;;14.20;11.27;;;19.70;88.90;;;;;;5024767;28;20139;-71
2022/07/31 11:09:26;;;;;;;15.03;10.93;;;19.80;88.70;;;;;;5007816;28;20038;-71
2022/07/31 11:11:53;;;;;;;16.10;11.63;;;19.80;89.00;;;;;;5017785;28;20052;-72
2022/07/31 11:14:30;;;;;;;14.47;11.60;;;19.80;89.20;;;;;;5025513;28;20059;-71
2022/07/31 11:16:56;;;;;;;15.80;11.43;;;19.80;89.20;;;;;;5038454;28;20491;-71
2022/07/31 11:19:21;;;;;;;15.50;12.03;;;19.80;88.70;;;;;;5021559;28;20043;-71
2022/07/31 11:21:47;;;;;;;15.77;11.10;;;19.80;89.20;;;;;;5041143;28;20041;-71
2022/07/31 11:24:19;;;;;;;18.73;12.47;;;19.80;89.10;;;;;;5039146;28;20342;-70
2022/07/31 11:26:51;;;;;;;15.93;11.30;;;19.80;89.60;;;;;;5043763;28;20274;-70
2022/07/31 11:29:34;;;;;;;15.33;10.97;;;19.80;89.40;;;;;;5032867;28;20040;-70
2022/07/31 11:32:20;;;;;;;15.77;11.80;;;19.80;89.30;;;;;;5042052;28;20059;-70
2022/07/31 11:34:52;;;;;;;15.97;11.23;;;19.70;89.30;;;;;;5040174;28;20501;-71
2022/07/31 11:37:22;;;;;;;16.53;11.67;;;19.70;89.50;;;;;;5043071;28;20136;-71
2022/07/31 11:39:49;;;;;;;19.27;11.27;;;19.60;90.20;;;;;;5021601;28;20554;-71
2022/07/31 11:42:16;;;;;;;11.13;8.60;;;19.50;90.60;;;;;;5040185;28;20052;-72
2022/07/31 11:44:42;;;;;;;10.60;7.60;;;19.40;91.00;;;;;;5027816;28;20140;-73
2022/07/31 11:47:08;;;;;;;12.40;8.40;;;19.40;91.40;;;;;;5039088;28;20492;-74
2022/07/31 11:49:35;;;;;;;10.77;8.57;;;19.40;91.90;;;;;;5037480;28;20045;-74
2022/07/31 11:52:04;;;;;;;15.10;8.37;;;19.40;92.40;;;;;;5031349;28;20044;-74
2022/07/31 11:54:30;;;;;;;11.00;8.93;;;19.40;92.90;;;;;;5028905;28;20037;-75
2022/07/31 11:56:56;;;;;;;9.83;7.00;;;19.40;93.90;;;;;;5031021;28;20040;-74
2022/07/31 11:59:32;;;;;;;8.23;6.40;;;19.40;94.00;;;;;;5033557;28;20148;-74
2022/07/31 12:02:17;;;;;;;5.43;4.03;;;19.40;94.70;;;;;;5024326;28;20516;-75
2022/07/31 12:04:43;;;;;;;3.65;2.83;;;19.40;95.30;;;;;;5021014;28;20037;-74
2022/07/31 12:07:09;;;;;;;2.83;1.67;;;19.40;94.90;;;;;;5039657;28;20679;-74
2022/07/31 12:09:36;;;;;;;2.33;1.33;;;19.50;95.60;;;;;;5019544;28;20033;-75
2022/07/31 12:12:05;;;;;;;3.60;1.30;;;19.60;96.00;;;;;;4994244;28;20118;-75
2022/07/31 12:14:37;;;;;;;2.23;1.63;;;19.80;95.60;;;;;;5037962;28;20383;-76
2022/07/31 12:17:04;;;;;;;2.80;1.83;;;20.10;96.10;;;;;;5018414;28;20627;-75
2022/07/31 12:19:33;;;;;;;4.60;2.83;;;20.20;94.40;;;;;;5034837;28;20152;-75
2022/07/31 12:21:59;;;;;;;7.47;4.90;;;20.20;94.10;;;;;;5014312;28;20454;-75
2022/07/31 12:24:25;;;;;;;6.40;4.90;;;20.10;93.00;;;;;;5029920;28;20045;-76
2022/07/31 12:26:58;;;;;;;6.27;4.80;;;20.00;93.00;;;;;;5040384;28;20386;-75
2022/07/31 12:29:35;;;;;;;9.57;5.77;;;19.90;93.30;;;;;;5020653;28;20532;-75
2022/07/31 12:32:02;;;;;;;8.47;6.07;;;19.80;93.70;;;;;;5039517;28;20064;-75
2022/07/31 12:34:41;;;;;;;9.33;6.93;;;19.70;94.00;;;;;;5024546;28;20037;-75
2022/07/31 12:37:11;;;;;;;9.90;5.90;;;19.50;94.10;;;;;;5049087;28;20110;-74
2022/07/31 12:39:51;;;;;;;5.83;5.03;;;19.50;95.10;;;;;;5030878;28;20124;-75
2022/07/31 12:42:25;;;;;;;6.53;5.20;;;19.40;95.00;;;;;;5035884;28;20029;-75
2022/07/31 12:44:52;;;;;;;6.70;4.60;;;19.40;95.40;;;;;;5044667;28;20152;-75
2022/07/31 12:47:26;;;;;;;6.87;5.20;;;19.50;95.50;;;;;;5028750;28;20041;-76
2022/07/31 12:49:52;;;;;;;7.55;5.00;;;19.60;95.60;;;;;;5027710;28;20180;-75